sensor_id;sensor_type;location;lat;lon;timestamp;pressure;altitude;pressure_sealevel;temperature;humidity
65394;BME280;52002;49.760;6.512;2022-08-19T00:01:46;99694.70;;;20.58;61.66
65394;BME280;52002;49.760;6.512;2022-08-19T00:04:15;99690.10;;;20.58;61.73
65394;BME280;52002;49.760;6.512;2022-08-19T00:06:43;99697.41;;;20.58;61.86
65394;BME280;52002;49.760;6.512;2022-08-19T00:09:12;99699.81;;;20.57;61.94
65394;BME280;52002;49.760;6.512;2022-08-19T00:11:40;99703.67;;;20.52;62.10
65394;BME280;52002;49.760;6.512;2022-08-19T00:14:09;99700.23;;;20.47;62.24
65394;BME280;52002;49.760;6.512;2022-08-19T00:16:38;99707.96;;;20.43;62.36
65394;BME280;52002;49.760;6.512;2022-08-19T00:19:07;99710.58;;;20.41;62.50
65394;BME280;52002;49.760;6.512;2022-08-19T00:21:34;99719.94;;;20.38;62.60
65394;BME280;52002;49.760;6.512;2022-08-19T00:24:02;99706.80;;;20.35;62.62
65394;BME280;52002;49.760;6.512;2022-08-19T00:26:28;99708.69;;;20.35;62.66
65394;BME280;52002;49.760;6.512;2022-08-19T00:28:55;99705.67;;;20.34;62.69
65394;BME280;52002;49.760;6.512;2022-08-19T00:31:22;99697.00;;;20.34;62.72
65394;BME280;52002;49.760;6.512;2022-08-19T00:33:48;99700.75;;;20.33;62.79
65394;BME280;52002;49.760;6.512;2022-08-19T00:36:17;99690.98;;;20.32;62.75
65394;BME280;52002;49.760;6.512;2022-08-19T00:38:43;99685.97;;;20.29;62.63
65394;BME280;52002;49.760;6.512;2022-08-19T00:41:16;99684.70;;;20.25;62.63
65394;BME280;52002;49.760;6.512;2022-08-19T00:46:35;99692.42;;;20.28;62.99
65394;BME280;52002;49.760;6.512;2022-08-19T00:49:25;99695.77;;;20.30;62.95
65394;BME280;52002;49.760;6.512;2022-08-19T00:51:55;99702.86;;;20.31;62.88
65394;BME280;52002;49.760;6.512;2022-08-19T00:54:23;99698.48;;;20.30;62.77
65394;BME280;52002;49.760;6.512;2022-08-19T00:56:50;99695.14;;;20.28;62.77
65394;BME280;52002;49.760;6.512;2022-08-19T00:59:18;99686.28;;;20.30;62.80
65394;BME280;52002;49.760;6.512;2022-08-19T01:01:45;99686.59;;;20.31;62.84
65394;BME280;52002;49.760;6.512;2022-08-19T01:04:12;99687.33;;;20.29;62.88
65394;BME280;52002;49.760;6.512;2022-08-19T01:06:39;99686.88;;;20.25;62.93
65394;BME280;52002;49.760;6.512;2022-08-19T01:09:08;99684.39;;;20.17;62.93
65394;BME280;52002;49.760;6.512;2022-08-19T01:11:37;99691.48;;;20.11;63.01
65394;BME280;52002;49.760;6.512;2022-08-19T01:14:06;99692.61;;;20.06;63.09
65394;BME280;52002;49.760;6.512;2022-08-19T01:16:34;99691.76;;;19.99;63.16
65394;BME280;52002;49.760;6.512;2022-08-19T01:19:01;99692.92;;;19.94;63.24
65394;BME280;52002;49.760;6.512;2022-08-19T01:23:59;99688.95;;;19.90;63.38
65394;BME280;52002;49.760;6.512;2022-08-19T01:26:26;99686.30;;;19.85;63.36
65394;BME280;52002;49.760;6.512;2022-08-19T01:28:56;99677.44;;;19.81;63.36
65394;BME280;52002;49.760;6.512;2022-08-19T01:31:25;99676.48;;;19.78;63.46
65394;BME280;52002;49.760;6.512;2022-08-19T01:33:56;99667.95;;;19.74;63.62
65394;BME280;52002;49.760;6.512;2022-08-19T01:36:33;99672.02;;;19.74;63.81
65394;BME280;52002;49.760;6.512;2022-08-19T01:39:05;99670.75;;;19.70;63.99
65394;BME280;52002;49.760;6.512;2022-08-19T01:41:34;99671.47;;;19.68;64.05
65394;BME280;52002;49.760;6.512;2022-08-19T01:44:01;99665.63;;;19.64;64.07
65394;BME280;52002;49.760;6.512;2022-08-19T01:46:30;99672.30;;;19.62;64.15
65394;BME280;52002;49.760;6.512;2022-08-19T01:48:56;99680.52;;;19.58;64.16
65394;BME280;52002;49.760;6.512;2022-08-19T01:51:22;99681.95;;;19.53;64.21
65394;BME280;52002;49.760;6.512;2022-08-19T01:53:50;99684.66;;;19.53;64.17
65394;BME280;52002;49.760;6.512;2022-08-19T01:56:18;99676.75;;;19.52;64.09
65394;BME280;52002;49.760;6.512;2022-08-19T01:58:51;99678.61;;;19.51;64.10
65394;BME280;52002;49.760;6.512;2022-08-19T02:01:23;99677.34;;;19.47;64.09
65394;BME280;52002;49.760;6.512;2022-08-19T02:03:49;99682.33;;;19.44;64.17
65394;BME280;52002;49.760;6.512;2022-08-19T02:06:15;99679.52;;;19.41;64.27
65394;BME280;52002;49.760;6.512;2022-08-19T02:08:42;99675.78;;;19.42;64.31
65394;BME280;52002;49.760;6.512;2022-08-19T02:11:23;99677.23;;;19.45;64.43
65394;BME280;52002;49.760;6.512;2022-08-19T02:13:44;99675.38;;;19.45;64.57
65394;BME280;52002;49.760;6.512;2022-08-19T02:16:10;99681.21;;;19.49;64.38
65394;BME280;52002;49.760;6.512;2022-08-19T02:18:36;99675.58;;;19.50;64.45
65394;BME280;52002;49.760;6.512;2022-08-19T02:21:02;99679.54;;;19.48;64.36
65394;BME280;52002;49.760;6.512;2022-08-19T02:23:28;99692.02;;;19.42;64.37
65394;BME280;52002;49.760;6.512;2022-08-19T02:25:54;99686.29;;;19.41;64.41
65394;BME280;52002;49.760;6.512;2022-08-19T02:28:20;99685.44;;;19.40;64.45
65394;BME280;52002;49.760;6.512;2022-08-19T02:30:47;99688.68;;;19.40;64.43
65394;BME280;52002;49.760;6.512;2022-08-19T02:33:13;99692.63;;;19.37;64.44
65394;BME280;52002;49.760;6.512;2022-08-19T02:35:45;99692.89;;;19.32;64.50
65394;BME280;52002;49.760;6.512;2022-08-19T02:38:12;99691.13;;;19.28;64.54
65394;BME280;52002;49.760;6.512;2022-08-19T02:40:59;99688.63;;;19.26;64.62
65394;BME280;52002;49.760;6.512;2022-08-19T02:43:29;99686.11;;;19.25;64.76
65394;BME280;52002;49.760;6.512;2022-08-19T02:45:56;99689.53;;;19.23;64.85
65394;BME280;52002;49.760;6.512;2022-08-19T02:48:24;99687.11;;;19.17;64.84
65394;BME280;52002;49.760;6.512;2022-08-19T02:50:51;99690.33;;;19.10;64.89
65394;BME280;52002;49.760;6.512;2022-08-19T02:53:19;99693.66;;;19.12;65.08
65394;BME280;52002;49.760;6.512;2022-08-19T02:55:48;99703.14;;;19.12;65.22
65394;BME280;52002;49.760;6.512;2022-08-19T02:58:16;99700.72;;;19.13;65.28
65394;BME280;52002;49.760;6.512;2022-08-19T03:00:49;99712.89;;;19.13;65.26
65394;BME280;52002;49.760;6.512;2022-08-19T03:03:17;99713.00;;;19.09;65.20
65394;BME280;52002;49.760;6.512;2022-08-19T03:05:44;99714.03;;;19.08;65.17
65394;BME280;52002;49.760;6.512;2022-08-19T03:08:12;99708.30;;;19.07;65.22
65394;BME280;52002;49.760;6.512;2022-08-19T03:10:46;99707.88;;;19.03;65.30
65394;BME280;52002;49.760;6.512;2022-08-19T03:13:15;99704.00;;;19.02;65.43
65394;BME280;52002;49.760;6.512;2022-08-19T03:15:44;99702.01;;;19.00;65.52
65394;BME280;52002;49.760;6.512;2022-08-19T03:18:12;99699.70;;;18.96;65.57
65394;BME280;52002;49.760;6.512;2022-08-19T03:20:50;99703.83;;;18.92;65.60
65394;BME280;52002;49.760;6.512;2022-08-19T03:23:19;99696.03;;;18.93;65.77
65394;BME280;52002;49.760;6.512;2022-08-19T03:25:47;99696.59;;;19.00;65.64
65394;BME280;52002;49.760;6.512;2022-08-19T03:28:15;99700.58;;;19.04;65.58
65394;BME280;52002;49.760;6.512;2022-08-19T03:30:44;99702.57;;;19.06;65.56
65394;BME280;52002;49.760;6.512;2022-08-19T03:33:25;99710.37;;;19.05;65.52
65394;BME280;52002;49.760;6.512;2022-08-19T03:36:10;99713.14;;;19.01;65.60
65394;BME280;52002;49.760;6.512;2022-08-19T03:38:46;99717.28;;;18.96;65.74
65394;BME280;52002;49.760;6.512;2022-08-19T03:41:16;99720.77;;;18.90;65.89
65394;BME280;52002;49.760;6.512;2022-08-19T03:43:44;99722.90;;;18.84;66.03
65394;BME280;52002;49.760;6.512;2022-08-19T03:46:16;99725.99;;;18.81;66.06
65394;BME280;52002;49.760;6.512;2022-08-19T03:48:47;99730.15;;;18.77;66.14
65394;BME280;52002;49.760;6.512;2022-08-19T03:51:19;99735.09;;;18.73;66.14
65394;BME280;52002;49.760;6.512;2022-08-19T03:53:47;99742.98;;;18.68;66.32
65394;BME280;52002;49.760;6.512;2022-08-19T03:56:13;99740.45;;;18.66;66.31
65394;BME280;52002;49.760;6.512;2022-08-19T03:58:41;99747.09;;;18.64;66.33
65394;BME280;52002;49.760;6.512;2022-08-19T04:01:10;99743.64;;;18.59;66.33
65394;BME280;52002;49.760;6.512;2022-08-19T04:03:39;99741.11;;;18.58;66.42
65394;BME280;52002;49.760;6.512;2022-08-19T04:06:11;99739.59;;;18.59;66.49
65394;BME280;52002;49.760;6.512;2022-08-19T04:08:44;99733.76;;;18.62;66.62
65394;BME280;52002;49.760;6.512;2022-08-19T04:11:13;99730.23;;;18.62;66.53
65394;BME280;52002;49.760;6.512;2022-08-19T04:13:42;99729.59;;;18.60;66.57
65394;BME280;52002;49.760;6.512;2022-08-19T04:16:10;99730.83;;;18.57;66.72
65394;BME280;52002;49.760;6.512;2022-08-19T04:18:38;99735.48;;;18.53;66.85
65394;BME280;52002;49.760;6.512;2022-08-19T04:21:06;99748.84;;;18.50;67.02
65394;BME280;52002;49.760;6.512;2022-08-19T04:23:33;99746.86;;;18.48;67.13
65394;BME280;52002;49.760;6.512;2022-08-19T04:26:01;99746.14;;;18.50;67.15
65394;BME280;52002;49.760;6.512;2022-08-19T04:28:28;99748.34;;;18.50;67.14
65394;BME280;52002;49.760;6.512;2022-08-19T04:30:54;99748.03;;;18.49;67.26
65394;BME280;52002;49.760;6.512;2022-08-19T04:33:23;99754.46;;;18.48;67.35
65394;BME280;52002;49.760;6.512;2022-08-19T04:35:51;99742.16;;;18.46;67.37
65394;BME280;52002;49.760;6.512;2022-08-19T04:38:19;99749.65;;;18.44;67.37
65394;BME280;52002;49.760;6.512;2022-08-19T04:40:49;99744.95;;;18.42;67.42
65394;BME280;52002;49.760;6.512;2022-08-19T04:43:37;99743.92;;;18.43;67.48
65394;BME280;52002;49.760;6.512;2022-08-19T04:46:09;99744.74;;;18.43;67.55
65394;BME280;52002;49.760;6.512;2022-08-19T04:48:37;99742.04;;;18.43;67.50
65394;BME280;52002;49.760;6.512;2022-08-19T04:51:06;99741.54;;;18.44;67.55
65394;BME280;52002;49.760;6.512;2022-08-19T04:53:36;99738.19;;;18.42;67.43
65394;BME280;52002;49.760;6.512;2022-08-19T04:56:08;99743.27;;;18.41;67.46
65394;BME280;52002;49.760;6.512;2022-08-19T04:58:35;99743.59;;;18.42;67.44
65394;BME280;52002;49.760;6.512;2022-08-19T05:01:01;99749.17;;;18.40;67.51
65394;BME280;52002;49.760;6.512;2022-08-19T05:03:28;99746.62;;;18.43;67.53
65394;BME280;52002;49.760;6.512;2022-08-19T05:05:56;99746.53;;;18.47;67.44
65394;BME280;52002;49.760;6.512;2022-08-19T05:08:22;99747.82;;;18.51;67.34
65394;BME280;52002;49.760;6.512;2022-08-19T05:10:50;99741.70;;;18.53;67.39
65394;BME280;52002;49.760;6.512;2022-08-19T05:13:18;99743.50;;;18.57;67.34
65394;BME280;52002;49.760;6.512;2022-08-19T05:15:52;99751.42;;;18.58;67.23
65394;BME280;52002;49.760;6.512;2022-08-19T05:18:19;99748.02;;;18.60;67.22
65394;BME280;52002;49.760;6.512;2022-08-19T05:21:09;99749.16;;;18.62;67.32
65394;BME280;52002;49.760;6.512;2022-08-19T05:23:55;99762.08;;;18.66;67.29
65394;BME280;52002;49.760;6.512;2022-08-19T05:26:24;99760.66;;;18.71;67.14
65394;BME280;52002;49.760;6.512;2022-08-19T05:28:53;99751.41;;;18.69;67.07
65394;BME280;52002;49.760;6.512;2022-08-19T05:31:19;99758.67;;;18.69;67.10
65394;BME280;52002;49.760;6.512;2022-08-19T05:33:45;99757.64;;;18.70;67.16
65394;BME280;52002;49.760;6.512;2022-08-19T05:36:12;99759.64;;;18.72;67.11
65394;BME280;52002;49.760;6.512;2022-08-19T05:38:39;99752.17;;;18.74;67.18
65394;BME280;52002;49.760;6.512;2022-08-19T05:41:07;99763.63;;;18.76;67.24
65394;BME280;52002;49.760;6.512;2022-08-19T05:43:34;99769.27;;;18.81;67.21
65394;BME280;52002;49.760;6.512;2022-08-19T05:46:00;99773.08;;;18.87;67.16
65394;BME280;52002;49.760;6.512;2022-08-19T05:48:25;99774.54;;;18.89;67.21
65394;BME280;52002;49.760;6.512;2022-08-19T05:50:51;99772.44;;;18.95;67.19
65394;BME280;52002;49.760;6.512;2022-08-19T05:53:18;99769.64;;;19.00;67.15
65394;BME280;52002;49.760;6.512;2022-08-19T05:55:44;99777.94;;;19.09;67.17
65394;BME280;52002;49.760;6.512;2022-08-19T05:58:10;99767.97;;;19.16;66.98
65394;BME280;52002;49.760;6.512;2022-08-19T06:00:37;99773.23;;;19.24;66.88
65394;BME280;52002;49.760;6.512;2022-08-19T06:03:04;99778.89;;;19.30;66.78
65394;BME280;52002;49.760;6.512;2022-08-19T06:05:31;99782.53;;;19.33;66.69
65394;BME280;52002;49.760;6.512;2022-08-19T06:07:57;99795.34;;;19.35;66.56
65394;BME280;52002;49.760;6.512;2022-08-19T06:10:26;99788.27;;;19.34;66.53
65394;BME280;52002;49.760;6.512;2022-08-19T06:12:53;99791.29;;;19.35;66.43
65394;BME280;52002;49.760;6.512;2022-08-19T06:15:21;99792.96;;;19.36;66.42
65394;BME280;52002;49.760;6.512;2022-08-19T06:17:49;99792.57;;;19.39;66.40
65394;BME280;52002;49.760;6.512;2022-08-19T06:20:15;99789.47;;;19.42;66.36
65394;BME280;52002;49.760;6.512;2022-08-19T06:22:45;99783.23;;;19.48;66.28
65394;BME280;52002;49.760;6.512;2022-08-19T06:25:13;99773.36;;;19.51;66.18
65394;BME280;52002;49.760;6.512;2022-08-19T06:27:40;99783.16;;;19.52;66.01
65394;BME280;52002;49.760;6.512;2022-08-19T06:30:08;99786.39;;;19.52;65.90
65394;BME280;52002;49.760;6.512;2022-08-19T06:32:35;99800.44;;;19.51;66.05
65394;BME280;52002;49.760;6.512;2022-08-19T06:35:01;99809.13;;;19.58;66.14
65394;BME280;52002;49.760;6.512;2022-08-19T06:37:27;99820.41;;;19.68;66.13
65394;BME280;52002;49.760;6.512;2022-08-19T06:39:53;99820.11;;;19.74;65.98
65394;BME280;52002;49.760;6.512;2022-08-19T06:42:19;99834.83;;;19.75;65.68
65394;BME280;52002;49.760;6.512;2022-08-19T06:44:46;99827.02;;;19.76;65.67
65394;BME280;52002;49.760;6.512;2022-08-19T06:47:16;99822.77;;;19.84;65.62
65394;BME280;52002;49.760;6.512;2022-08-19T06:49:44;99825.98;;;19.95;65.47
65394;BME280;52002;49.760;6.512;2022-08-19T06:52:11;99827.88;;;20.08;65.26
65394;BME280;52002;49.760;6.512;2022-08-19T06:54:38;99826.69;;;20.24;64.96
65394;BME280;52002;49.760;6.512;2022-08-19T06:57:05;99833.48;;;20.37;64.74
65394;BME280;52002;49.760;6.512;2022-08-19T06:59:33;99837.17;;;20.54;64.55
65394;BME280;52002;49.760;6.512;2022-08-19T07:02:02;99840.33;;;20.71;64.28
65394;BME280;52002;49.760;6.512;2022-08-19T07:04:31;99854.34;;;20.88;63.86
65394;BME280;52002;49.760;6.512;2022-08-19T07:07:06;99851.20;;;21.04;63.36
65394;BME280;52002;49.760;6.512;2022-08-19T07:09:40;99853.94;;;21.18;62.95
65394;BME280;52002;49.760;6.512;2022-08-19T07:12:09;99857.25;;;21.33;62.42
65394;BME280;52002;49.760;6.512;2022-08-19T07:14:38;99861.80;;;21.46;61.98
65394;BME280;52002;49.760;6.512;2022-08-19T07:17:08;99857.91;;;21.58;61.49
65394;BME280;52002;49.760;6.512;2022-08-19T07:19:35;99855.92;;;21.70;61.13
65394;BME280;52002;49.760;6.512;2022-08-19T07:22:04;99854.97;;;21.80;60.87
65394;BME280;52002;49.760;6.512;2022-08-19T07:24:31;99859.09;;;21.89;60.72
65394;BME280;52002;49.760;6.512;2022-08-19T07:26:59;99858.13;;;22.00;60.47
65394;BME280;52002;49.760;6.512;2022-08-19T07:29:30;99853.48;;;22.07;60.14
65394;BME280;52002;49.760;6.512;2022-08-19T07:31:58;99851.89;;;22.15;60.03
65394;BME280;52002;49.760;6.512;2022-08-19T07:34:27;99854.66;;;22.24;59.87
65394;BME280;52002;49.760;6.512;2022-08-19T07:36:54;99850.95;;;22.35;59.76
65394;BME280;52002;49.760;6.512;2022-08-19T07:39:24;99846.94;;;22.44;59.58
65394;BME280;52002;49.760;6.512;2022-08-19T07:41:56;99847.44;;;22.50;59.48
65394;BME280;52002;49.760;6.512;2022-08-19T07:46:54;99847.28;;;22.70;59.16
65394;BME280;52002;49.760;6.512;2022-08-19T07:49:23;99844.56;;;22.70;58.96
65394;BME280;52002;49.760;6.512;2022-08-19T07:51:56;99845.56;;;22.76;58.82
65394;BME280;52002;49.760;6.512;2022-08-19T07:54:28;99846.05;;;22.82;58.57
65394;BME280;52002;49.760;6.512;2022-08-19T07:56:56;99848.17;;;22.89;58.59
65394;BME280;52002;49.760;6.512;2022-08-19T07:59:24;99847.30;;;22.96;58.36
65394;BME280;52002;49.760;6.512;2022-08-19T08:01:51;99850.81;;;23.03;58.12
65394;BME280;52002;49.760;6.512;2022-08-19T08:04:18;99844.76;;;23.10;57.97
65394;BME280;52002;49.760;6.512;2022-08-19T08:07:04;99852.76;;;23.21;57.85
65394;BME280;52002;49.760;6.512;2022-08-19T08:09:49;99847.55;;;23.29;57.66
65394;BME280;52002;49.760;6.512;2022-08-19T08:12:21;99847.03;;;23.39;57.43
65394;BME280;52002;49.760;6.512;2022-08-19T08:14:53;99848.33;;;23.45;57.42
65394;BME280;52002;49.760;6.512;2022-08-19T08:17:23;99839.02;;;23.53;57.28
65394;BME280;52002;49.760;6.512;2022-08-19T08:19:51;99835.77;;;23.63;57.13
65394;BME280;52002;49.760;6.512;2022-08-19T08:22:22;99836.53;;;23.70;56.96
65394;BME280;52002;49.760;6.512;2022-08-19T08:25:11;99832.00;;;23.73;56.83
65394;BME280;52002;49.760;6.512;2022-08-19T08:27:42;99833.28;;;23.80;56.80
65394;BME280;52002;49.760;6.512;2022-08-19T08:30:12;99838.10;;;23.87;56.57
65394;BME280;52002;49.760;6.512;2022-08-19T08:32:40;99835.08;;;23.95;56.43
65394;BME280;52002;49.760;6.512;2022-08-19T08:35:10;99840.17;;;24.01;56.31
65394;BME280;52002;49.760;6.512;2022-08-19T08:37:38;99836.53;;;24.07;56.12
65394;BME280;52002;49.760;6.512;2022-08-19T08:40:17;99839.38;;;24.13;55.99
65394;BME280;52002;49.760;6.512;2022-08-19T08:42:39;99838.47;;;24.19;55.83
65394;BME280;52002;49.760;6.512;2022-08-19T08:45:13;99837.01;;;24.25;55.73
65394;BME280;52002;49.760;6.512;2022-08-19T08:47:44;99840.19;;;24.32;55.52
65394;BME280;52002;49.760;6.512;2022-08-19T08:50:21;99841.75;;;24.39;55.34
65394;BME280;52002;49.760;6.512;2022-08-19T08:52:48;99835.64;;;24.47;55.14
65394;BME280;52002;49.760;6.512;2022-08-19T08:55:20;99840.78;;;24.55;54.91
65394;BME280;52002;49.760;6.512;2022-08-19T08:57:55;99839.27;;;24.59;54.72
65394;BME280;52002;49.760;6.512;2022-08-19T09:00:28;99834.21;;;24.65;54.44
65394;BME280;52002;49.760;6.512;2022-08-19T09:02:57;99826.20;;;24.70;54.12
65394;BME280;52002;49.760;6.512;2022-08-19T09:05:30;99831.84;;;24.78;53.92
65394;BME280;52002;49.760;6.512;2022-08-19T09:08:25;99834.92;;;24.82;53.60
65394;BME280;52002;49.760;6.512;2022-08-19T09:11:05;99832.16;;;24.91;53.25
65394;BME280;52002;49.760;6.512;2022-08-19T09:16:13;99825.75;;;25.09;52.44
65394;BME280;52002;49.760;6.512;2022-08-19T09:18:48;99822.42;;;25.19;52.21
65394;BME280;52002;49.760;6.512;2022-08-19T09:21:18;99811.15;;;25.27;51.57
65394;BME280;52002;49.760;6.512;2022-08-19T09:23:44;99817.34;;;25.37;51.04
65394;BME280;52002;49.760;6.512;2022-08-19T09:26:17;99820.02;;;25.44;50.44
65394;BME280;52002;49.760;6.512;2022-08-19T09:28:43;99811.09;;;25.49;50.52
65394;BME280;52002;49.760;6.512;2022-08-19T09:31:16;99806.38;;;25.58;50.46
65394;BME280;52002;49.760;6.512;2022-08-19T09:33:40;99806.76;;;25.65;50.29
65394;BME280;52002;49.760;6.512;2022-08-19T09:36:10;99808.28;;;25.72;49.90
65394;BME280;52002;49.760;6.512;2022-08-19T09:38:39;99811.77;;;25.82;49.37
65394;BME280;52002;49.760;6.512;2022-08-19T09:41:15;99810.25;;;25.89;48.36
65394;BME280;52002;49.760;6.512;2022-08-19T09:43:40;99808.66;;;25.90;48.08
65394;BME280;52002;49.760;6.512;2022-08-19T09:46:08;99806.88;;;25.84;48.22
65394;BME280;52002;49.760;6.512;2022-08-19T09:48:38;99797.75;;;25.79;48.25
65394;BME280;52002;49.760;6.512;2022-08-19T09:51:12;99796.05;;;25.75;47.70
65394;BME280;52002;49.760;6.512;2022-08-19T09:53:40;99792.63;;;25.82;47.81
65394;BME280;52002;49.760;6.512;2022-08-19T09:56:06;99798.80;;;25.89;47.64
65394;BME280;52002;49.760;6.512;2022-08-19T09:58:33;99799.81;;;26.12;47.37
65394;BME280;52002;49.760;6.512;2022-08-19T10:01:01;99796.34;;;26.34;47.34
65394;BME280;52002;49.760;6.512;2022-08-19T10:03:28;99789.41;;;26.60;46.98
65394;BME280;52002;49.760;6.512;2022-08-19T10:05:57;99808.13;;;26.80;46.11
65394;BME280;52002;49.760;6.512;2022-08-19T10:08:28;99794.80;;;26.72;45.83
65394;BME280;52002;49.760;6.512;2022-08-19T10:10:57;99795.56;;;26.85;45.79
65394;BME280;52002;49.760;6.512;2022-08-19T10:13:27;99793.70;;;26.88;45.40
65394;BME280;52002;49.760;6.512;2022-08-19T10:15:56;99791.02;;;26.76;45.57
65394;BME280;52002;49.760;6.512;2022-08-19T10:18:24;99798.56;;;26.51;45.26
65394;BME280;52002;49.760;6.512;2022-08-19T10:20:51;99796.91;;;26.33;45.72
65394;BME280;52002;49.760;6.512;2022-08-19T10:23:19;99798.13;;;26.26;46.06
65394;BME280;52002;49.760;6.512;2022-08-19T10:25:46;99796.94;;;26.36;45.98
65394;BME280;52002;49.760;6.512;2022-08-19T10:28:13;99789.41;;;26.60;45.43
65394;BME280;52002;49.760;6.512;2022-08-19T10:30:39;99786.34;;;26.88;44.77
65394;BME280;52002;49.760;6.512;2022-08-19T10:33:05;99770.81;;;27.14;44.35
65394;BME280;52002;49.760;6.512;2022-08-19T10:35:32;99782.80;;;27.10;43.75
65394;BME280;52002;49.760;6.512;2022-08-19T10:37:58;99779.89;;;26.97;43.73
65394;BME280;52002;49.760;6.512;2022-08-19T10:40:27;99777.70;;;26.99;43.57
65394;BME280;52002;49.760;6.512;2022-08-19T10:42:54;99781.40;;;27.07;43.34
65394;BME280;52002;49.760;6.512;2022-08-19T10:45:22;99775.05;;;27.24;43.12
65394;BME280;52002;49.760;6.512;2022-08-19T10:47:50;99777.31;;;27.47;42.55
65394;BME280;52002;49.760;6.512;2022-08-19T10:50:17;99776.02;;;27.77;41.76
65394;BME280;52002;49.760;6.512;2022-08-19T10:53:07;99771.08;;;28.03;41.15
65394;BME280;52002;49.760;6.512;2022-08-19T10:55:34;99770.45;;;28.21;41.13
65394;BME280;52002;49.760;6.512;2022-08-19T10:58:20;99781.20;;;28.25;40.86
65394;BME280;52002;49.760;6.512;2022-08-19T11:00:53;99781.08;;;28.12;40.60
65394;BME280;52002;49.760;6.512;2022-08-19T11:03:21;99776.49;;;28.18;40.70
65394;BME280;52002;49.760;6.512;2022-08-19T11:06:03;99776.09;;;28.37;40.09
65394;BME280;52002;49.760;6.512;2022-08-19T11:08:32;99759.61;;;28.69;39.71
65394;BME280;52002;49.760;6.512;2022-08-19T11:11:01;99759.79;;;28.90;38.99
65394;BME280;52002;49.760;6.512;2022-08-19T11:13:31;99764.44;;;28.87;39.11
65394;BME280;52002;49.760;6.512;2022-08-19T11:16:07;99769.02;;;28.73;39.30
65394;BME280;52002;49.760;6.512;2022-08-19T11:18:32;99765.86;;;28.62;39.60
65394;BME280;52002;49.760;6.512;2022-08-19T11:21:08;99756.30;;;28.67;39.70
65394;BME280;52002;49.760;6.512;2022-08-19T11:23:36;99758.52;;;28.68;39.67
65394;BME280;52002;49.760;6.512;2022-08-19T11:26:03;99758.84;;;28.74;39.58
65394;BME280;52002;49.760;6.512;2022-08-19T11:28:28;99772.58;;;28.74;39.80
65394;BME280;52002;49.760;6.512;2022-08-19T11:30:54;99762.48;;;28.82;38.92
65394;BME280;52002;49.760;6.512;2022-08-19T11:33:20;99767.47;;;28.88;38.49
65394;BME280;52002;49.760;6.512;2022-08-19T11:35:46;99760.70;;;28.68;38.52
65394;BME280;52002;49.760;6.512;2022-08-19T11:38:12;99773.23;;;28.56;38.96
65394;BME280;52002;49.760;6.512;2022-08-19T11:40:39;99772.80;;;28.35;39.26
65394;BME280;52002;49.760;6.512;2022-08-19T11:43:07;99769.16;;;28.29;39.81
65394;BME280;52002;49.760;6.512;2022-08-19T11:45:35;99777.73;;;28.35;39.51
65394;BME280;52002;49.760;6.512;2022-08-19T11:48:02;99770.52;;;28.26;39.62
65394;BME280;52002;49.760;6.512;2022-08-19T11:50:28;99760.44;;;28.07;39.45
65394;BME280;52002;49.760;6.512;2022-08-19T11:52:55;99774.16;;;28.07;39.29
65394;BME280;52002;49.760;6.512;2022-08-19T11:55:23;99764.09;;;28.13;38.66
65394;BME280;52002;49.760;6.512;2022-08-19T11:57:49;99753.63;;;28.12;38.13
65394;BME280;52002;49.760;6.512;2022-08-19T12:00:15;99759.74;;;28.17;38.28
65394;BME280;52002;49.760;6.512;2022-08-19T12:02:41;99751.88;;;28.28;38.04
65394;BME280;52002;49.760;6.512;2022-08-19T12:05:08;99757.95;;;28.33;38.06
65394;BME280;52002;49.760;6.512;2022-08-19T12:07:34;99760.45;;;28.35;37.08
65394;BME280;52002;49.760;6.512;2022-08-19T12:10:02;99771.43;;;28.35;36.98
65394;BME280;52002;49.760;6.512;2022-08-19T12:12:28;99753.88;;;28.38;36.67
65394;BME280;52002;49.760;6.512;2022-08-19T12:14:55;99748.97;;;28.43;35.86
65394;BME280;52002;49.760;6.512;2022-08-19T12:17:24;99753.38;;;28.44;35.64
65394;BME280;52002;49.760;6.512;2022-08-19T12:19:52;99732.31;;;28.52;35.06
65394;BME280;52002;49.760;6.512;2022-08-19T12:22:18;99743.93;;;28.65;35.23
65394;BME280;52002;49.760;6.512;2022-08-19T12:24:46;99752.36;;;28.90;35.35
65394;BME280;52002;49.760;6.512;2022-08-19T12:27:13;99746.70;;;29.07;36.01
65394;BME280;52002;49.760;6.512;2022-08-19T12:29:39;99761.90;;;29.20;36.07
65394;BME280;52002;49.760;6.512;2022-08-19T12:32:06;99750.83;;;29.07;35.87
65394;BME280;52002;49.760;6.512;2022-08-19T12:34:33;99758.30;;;29.17;35.65
65394;BME280;52002;49.760;6.512;2022-08-19T12:37:01;99756.12;;;29.19;35.08
65394;BME280;52002;49.760;6.512;2022-08-19T12:39:28;99748.37;;;29.11;35.19
65394;BME280;52002;49.760;6.512;2022-08-19T12:41:56;99754.06;;;28.97;35.32
65394;BME280;52002;49.760;6.512;2022-08-19T12:44:24;99752.64;;;28.89;35.54
65394;BME280;52002;49.760;6.512;2022-08-19T12:46:50;99748.80;;;28.92;35.24
65394;BME280;52002;49.760;6.512;2022-08-19T12:49:17;99745.86;;;29.07;35.00
65394;BME280;52002;49.760;6.512;2022-08-19T12:51:43;99755.88;;;29.29;33.87
65394;BME280;52002;49.760;6.512;2022-08-19T12:54:09;99755.88;;;29.29;33.87
65394;BME280;52002;49.760;6.512;2022-08-19T12:56:36;99746.26;;;29.29;33.79
65394;BME280;52002;49.760;6.512;2022-08-19T12:59:03;99745.38;;;29.18;33.65
65394;BME280;52002;49.760;6.512;2022-08-19T13:01:30;99744.48;;;29.07;33.17
65394;BME280;52002;49.760;6.512;2022-08-19T13:03:58;99740.08;;;29.01;33.31
65394;BME280;52002;49.760;6.512;2022-08-19T13:06:25;99742.59;;;29.13;33.33
65394;BME280;52002;49.760;6.512;2022-08-19T13:08:51;99740.54;;;29.38;33.37
65394;BME280;52002;49.760;6.512;2022-08-19T13:11:20;99735.45;;;29.73;33.03
65394;BME280;52002;49.760;6.512;2022-08-19T13:13:49;99733.87;;;30.03;32.48
65394;BME280;52002;49.760;6.512;2022-08-19T13:16:16;99738.03;;;30.31;32.41
65394;BME280;52002;49.760;6.512;2022-08-19T13:18:45;99736.39;;;30.35;32.45
65394;BME280;52002;49.760;6.512;2022-08-19T13:21:16;99749.87;;;30.29;32.61